createdAt,value
2023-08-12T00:00:21.823Z,100267.59
2023-08-12T00:01:01.766Z,100266.97
2023-08-12T00:01:35.278Z,100272.19
2023-08-12T00:02:10.770Z,100268.00
2023-08-12T00:02:46.263Z,100261.13
2023-08-12T00:03:19.860Z,100271.00
2023-08-12T00:03:55.818Z,100272.19
2023-08-12T00:04:30.980Z,100273.22
2023-08-12T00:05:05.478Z,100269.47
2023-08-12T00:06:13.807Z,100278.47
2023-08-12T00:06:49.652Z,100270.72
2023-08-12T00:07:58.112Z,100268.34
2023-08-12T00:08:32.163Z,100269.03
2023-08-12T00:09:08.915Z,100270.88
2023-08-12T00:09:44.801Z,100269.19
2023-08-12T00:10:17.886Z,100273.97
2023-08-12T00:10:50.831Z,100271.53
2023-08-12T00:11:25.568Z,100273.41
2023-08-12T00:12:00.772Z,100261.53
2023-08-12T00:12:37.246Z,100265.91
2023-08-12T00:13:11.178Z,100271.34
2023-08-12T00:13:46.804Z,100271.75
2023-08-12T00:14:20.568Z,100266.69
2023-08-12T00:14:56.122Z,100267.91
2023-08-12T00:15:29.896Z,100270.22
2023-08-12T00:16:04.462Z,100273.13
2023-08-12T00:16:40.025Z,100267.91
2023-08-12T00:17:14.349Z,100270.63
2023-08-12T00:17:48.112Z,100269.78
2023-08-12T00:18:22.842Z,100272.66
2023-08-12T00:18:57.873Z,100271.81
2023-08-12T00:19:33.416Z,100274.53
2023-08-12T00:20:09.297Z,100274.53
2023-08-12T00:20:43.558Z,100267.44
2023-08-12T00:21:49.771Z,100274.91
2023-08-12T00:22:24.883Z,100269.31
2023-08-12T00:23:00.664Z,100266.59
2023-08-12T00:23:41.987Z,100278.47
2023-08-12T00:24:20.089Z,100271.53
2023-08-12T00:24:54.363Z,100269.69
2023-08-12T00:25:30.027Z,100266.97
2023-08-12T00:26:04.542Z,100267.81
2023-08-12T00:26:39.793Z,100266.09
2023-08-12T00:27:14.812Z,100271.38
2023-08-12T00:27:49.976Z,100264.63
2023-08-12T00:28:26.143Z,100265.84
2023-08-12T00:28:59.880Z,100260.69
2023-08-12T00:29:32.866Z,100266.31
2023-08-12T00:30:08.849Z,100265.47
2023-08-12T00:30:43.890Z,100264.63
2023-08-12T00:31:19.193Z,100275.47
2023-08-12T00:31:55.736Z,100272.13
2023-08-12T00:32:30.751Z,100267.72
2023-08-12T00:33:04.144Z,100265.84
2023-08-12T00:33:38.102Z,100274.16
2023-08-12T00:34:15.938Z,100264.63
2023-08-12T00:34:50.980Z,100268.19
2023-08-12T00:35:24.909Z,100262.09
2023-08-12T00:35:59.119Z,100266.69
2023-08-12T00:36:33.006Z,100266.69
2023-08-12T00:37:09.095Z,100264.81
2023-08-12T00:37:44.901Z,100261.63
2023-08-12T00:38:20.952Z,100264.72
2023-08-12T00:38:54.994Z,100257.44
2023-08-12T00:39:28.930Z,100265.56
2023-08-12T00:40:03.167Z,100263.69
2023-08-12T00:40:37.328Z,100266.41
2023-08-12T00:41:12.769Z,100266.41
2023-08-12T00:41:47.956Z,100264.72
2023-08-12T00:42:21.968Z,100267.06
2023-08-12T00:42:55.982Z,100271.44
2023-08-12T00:43:28.938Z,100264.34
2023-08-12T00:44:05.160Z,100264.34
2023-08-12T00:44:38.995Z,100265.38
2023-08-12T00:45:14.434Z,100262.66
2023-08-12T00:45:50.051Z,100268.72
2023-08-12T00:46:25.793Z,100256.59
2023-08-12T00:47:01.493Z,100266.41
2023-08-12T00:47:37.605Z,100260.97
2023-08-12T00:48:14.776Z,100267.53
2023-08-12T00:48:51.601Z,100260.22
2023-08-12T00:49:29.089Z,100265.66
2023-08-12T00:50:03.712Z,100271.09
2023-08-12T00:50:40.378Z,100262.56
2023-08-12T00:51:18.250Z,100272.56
2023-08-12T00:51:55.418Z,100263.41
2023-08-12T00:52:31.372Z,100260.03
2023-08-12T00:53:07.765Z,100267.13
2023-08-12T00:53:44.281Z,100263.31
2023-08-12T00:54:19.142Z,100270.53
2023-08-12T00:54:53.565Z,100266.69
2023-08-12T00:55:26.898Z,100262.56
2023-08-12T00:56:02.003Z,100257.50
2023-08-12T00:56:38.928Z,100258.75
2023-08-12T00:57:47.104Z,100260.44
2023-08-12T00:58:21.095Z,100258.34
2023-08-12T00:58:55.623Z,100266.00
2023-08-12T00:59:31.818Z,100259.31
2023-08-12T01:00:09.338Z,100268.47
2023-08-12T01:00:43.606Z,100269.75
2023-08-12T01:01:19.443Z,100262.47
2023-08-12T01:01:55.261Z,100261.47
2023-08-12T01:03:03.082Z,100262.31
2023-08-12T01:03:37.548Z,100256.19
2023-08-12T01:04:12.926Z,100258.25
2023-08-12T01:04:46.135Z,100260.34
2023-08-12T01:05:21.657Z,100263.03
2023-08-12T01:05:57.167Z,100256.94
2023-08-12T01:06:30.960Z,100252.19
2023-08-12T01:07:05.284Z,100251.50
2023-08-12T01:07:39.329Z,100252.09
2023-08-12T01:08:14.905Z,100255.16
2023-08-12T01:08:50.145Z,100254.81
2023-08-12T01:09:24.112Z,100253.09
2023-08-12T01:09:58.144Z,100250.59
2023-08-12T01:10:38.120Z,100250.59
2023-08-12T01:11:22.378Z,100259.41
2023-08-12T01:12:14.444Z,100256.50
2023-08-12T01:13:14.534Z,100250.22
2023-08-12T01:14:00.354Z,100254.63
2023-08-12T01:15:04.822Z,100253.78
2023-08-12T01:15:44.463Z,100255.06
2023-08-12T01:16:24.027Z,100254.81
2023-08-12T01:17:05.553Z,100250.88
2023-08-12T01:18:15.768Z,100258.91
2023-08-12T01:18:52.082Z,100259.09
2023-08-12T01:19:36.594Z,100252.84
2023-08-12T01:20:16.189Z,100257.25
2023-08-12T01:20:52.690Z,100249.75
2023-08-12T01:21:31.478Z,100255.72
2023-08-12T01:22:10.992Z,100249.09
2023-08-12T01:22:46.538Z,100253.00
2023-08-12T01:23:18.687Z,100253.00
2023-08-12T01:24:25.767Z,100255.91
2023-08-12T01:25:03.939Z,100253.59
2023-08-12T01:25:37.997Z,100255.28
2023-08-12T01:26:09.963Z,100265.09
2023-08-12T01:26:42.975Z,100259.00
2023-08-12T01:27:15.667Z,100262.19
2023-08-12T01:28:21.328Z,100260.69
2023-08-12T01:28:54.998Z,100255.16
2023-08-12T01:30:01.529Z,100258.53
2023-08-12T01:30:49.385Z,100260.31
2023-08-12T01:31:38.826Z,100264.97
2023-08-12T01:32:40.200Z,100265.94
2023-08-12T01:33:28.756Z,100260.41
2023-08-12T01:34:17.978Z,100256.66
2023-08-12T01:34:59.410Z,100262.28
2023-08-12T01:35:46.964Z,100258.06
2023-08-12T01:36:22.864Z,100260.78
2023-08-12T01:37:31.421Z,100260.41
2023-08-12T01:38:09.552Z,100261.16
2023-08-12T01:39:21.086Z,100260.94
2023-08-12T01:39:57.964Z,100258.06
2023-08-12T01:40:34.524Z,100255.53
2023-08-12T01:41:12.619Z,100258.44
2023-08-12T01:41:48.142Z,100265.53
2023-08-12T01:42:23.915Z,100254.69
2023-08-12T01:42:59.038Z,100254.69
2023-08-12T01:43:33.572Z,100258.81
2023-08-12T01:44:07.746Z,100255.41
2023-08-12T01:44:42.942Z,100258.53
2023-08-12T01:45:20.012Z,100261.03
2023-08-12T01:45:56.208Z,100265.44
2023-08-12T01:46:32.753Z,100263.09
2023-08-12T01:47:06.773Z,100261.69
2023-08-12T01:47:40.274Z,100261.22
2023-08-12T01:48:15.926Z,100258.72
2023-08-12T01:48:51.016Z,100266.00
2023-08-12T01:49:26.445Z,100260.94
2023-08-12T01:50:01.969Z,100258.72
2023-08-12T01:50:35.921Z,100265.81
2023-08-12T01:51:11.001Z,100258.88
2023-08-12T01:51:45.129Z,100259.25
2023-08-12T01:52:19.006Z,100260.09
2023-08-12T01:52:53.167Z,100262.28
2023-08-12T01:53:27.004Z,100260.44
2023-08-12T01:54:35.973Z,100253.31
2023-08-12T01:55:11.128Z,100255.56
2023-08-12T01:55:46.143Z,100261.84
2023-08-12T01:56:19.889Z,100259.84
2023-08-12T01:56:54.828Z,100256.59
2023-08-12T01:57:29.902Z,100259.84
2023-08-12T01:58:04.987Z,100260.03
2023-08-12T01:58:38.946Z,100251.91
2023-08-12T01:59:13.812Z,100260.88
2023-08-12T01:59:53.740Z,100254.97
2023-08-12T02:00:28.971Z,100259.00
2023-08-12T02:01:01.973Z,100254.63
2023-08-12T02:01:36.090Z,100254.63
2023-08-12T02:02:08.971Z,100258.16
2023-08-12T02:02:43.602Z,100258.16
2023-08-12T02:03:18.938Z,100251.91
2023-08-12T02:03:53.288Z,100259.84
2023-08-12T02:04:29.334Z,100253.47
2023-08-12T02:05:05.169Z,100263.59
2023-08-12T02:05:38.970Z,100261.34
2023-08-12T02:06:12.838Z,100256.59
2023-08-12T02:06:47.850Z,100258.63
2023-08-12T02:07:22.938Z,100252.75
2023-08-12T02:07:57.956Z,100255.75
2023-08-12T02:08:32.898Z,100258.81
2023-08-12T02:09:08.175Z,100247.34
2023-08-12T02:10:16.050Z,100252.03
2023-08-12T02:11:21.929Z,100252.75
2023-08-12T02:11:56.933Z,100249.50
2023-08-12T02:12:32.083Z,100258.28
2023-08-12T02:13:39.995Z,100253.88
2023-08-12T02:14:48.049Z,100251.72
2023-08-12T02:15:22.266Z,100261.84
2023-08-12T02:15:57.928Z,100257.91
2023-08-12T02:16:33.607Z,100256.69
2023-08-12T02:17:08.315Z,100254.00
2023-08-12T02:17:44.117Z,100250.59
2023-08-12T02:18:18.226Z,100261.13
2023-08-12T02:18:52.329Z,100252.31
2023-08-12T02:19:28.160Z,100258.72
2023-08-12T02:20:05.355Z,100249.75
2023-08-12T02:20:42.651Z,100253.00
2023-08-12T02:21:15.934Z,100253.31
2023-08-12T02:21:50.894Z,100254.72
2023-08-12T02:22:24.385Z,100250.78
2023-08-12T02:22:59.913Z,100252.66
2023-08-12T02:23:35.092Z,100254.91
2023-08-12T02:24:09.569Z,100249.50
2023-08-12T02:25:16.457Z,100252.03
2023-08-12T02:25:55.509Z,100257.44
2023-08-12T02:26:31.895Z,100259.47
2023-08-12T02:27:06.826Z,100256.94
2023-08-12T02:27:42.431Z,100259.47
2023-08-12T02:28:18.150Z,100252.22
2023-08-12T02:28:52.127Z,100253.31
2023-08-12T02:29:27.096Z,100252.84
2023-08-12T02:30:01.136Z,100258.94
2023-08-12T02:30:40.020Z,100259.56
2023-08-12T02:31:15.318Z,100264.84
2023-08-12T02:31:51.276Z,100257.91
2023-08-12T02:32:25.166Z,100245.75
2023-08-12T02:32:59.137Z,100259.13
2023-08-12T02:33:33.130Z,100258.28
2023-08-12T02:34:06.914Z,100257.75
2023-08-12T02:35:14.996Z,100255.56
2023-08-12T02:35:53.493Z,100256.13
2023-08-12T02:36:28.879Z,100261.19
2023-08-12T02:37:04.144Z,100252.31
2023-08-12T02:37:38.239Z,100251.63
2023-08-12T02:38:12.458Z,100249.31
2023-08-12T02:38:46.337Z,100260.16
2023-08-12T02:39:20.242Z,100252.66
2023-08-12T02:39:55.577Z,100250.34
2023-08-12T02:40:30.951Z,100252.22
2023-08-12T02:41:05.981Z,100255.75
2023-08-12T02:41:41.338Z,100253.22
2023-08-12T02:42:16.870Z,100260.16
2023-08-12T02:42:51.881Z,100259.31
2023-08-12T02:43:27.075Z,100253.69
2023-08-12T02:44:02.422Z,100254.72
2023-08-12T02:44:35.887Z,100249.66
2023-08-12T02:45:11.309Z,100258.63
2023-08-12T02:45:46.922Z,100259.47
2023-08-12T02:46:22.273Z,100252.38
2023-08-12T02:46:55.994Z,100250.34
2023-08-12T02:47:31.183Z,100256.75
2023-08-12T02:48:05.786Z,100256.13
2023-08-12T02:48:38.910Z,100252.56
2023-08-12T02:49:14.029Z,100261.91
2023-08-12T02:49:48.823Z,100262.94
2023-08-12T02:50:24.137Z,100257.69
2023-08-12T02:50:59.771Z,100260.41
2023-08-12T02:51:54.054Z,100256.00
2023-08-12T02:52:28.430Z,100262.66
2023-08-12T02:53:04.395Z,100258.91
2023-08-12T02:53:40.171Z,100253.84
2023-08-12T02:54:14.121Z,100258.59
2023-08-12T02:55:20.139Z,100265.25
2023-08-12T02:55:54.177Z,100255.59
2023-08-12T02:56:28.356Z,100256.09
2023-08-12T02:57:01.870Z,100259.13
2023-08-12T02:57:36.817Z,100259.13
2023-08-12T02:58:12.075Z,100262.88
2023-08-12T02:58:50.957Z,100259.34
2023-08-12T02:59:27.244Z,100259.34
2023-08-12T03:00:05.474Z,100258.50
2023-08-12T03:00:44.974Z,100262.41
2023-08-12T03:01:20.383Z,100260.72
2023-08-12T03:01:54.273Z,100260.72
2023-08-12T03:02:28.117Z,100256.50
2023-08-12T03:03:02.009Z,100259.41
2023-08-12T03:03:36.071Z,100256.31
2023-08-12T03:04:10.215Z,100258.31
2023-08-12T03:04:44.075Z,100260.34
2023-08-12T03:05:18.230Z,100254.00
2023-08-12T03:05:52.306Z,100259.59
2023-08-12T03:06:25.922Z,100258.56
2023-08-12T03:07:01.030Z,100252.66
2023-08-12T03:07:35.012Z,100249.28
2023-08-12T03:08:09.932Z,100250.13
2023-08-12T03:08:44.898Z,100258.75
2023-08-12T03:09:19.808Z,100259.59
2023-08-12T03:10:27.683Z,100256.88
2023-08-12T03:11:04.190Z,100259.41
2023-08-12T03:12:12.397Z,100259.22
2023-08-12T03:12:48.321Z,100258.88
2023-08-12T03:13:23.905Z,100256.63
2023-08-12T03:13:58.955Z,100257.47
2023-08-12T03:14:34.076Z,100252.03
2023-08-12T03:15:43.313Z,100261.69
2023-08-12T03:16:19.148Z,100253.56
2023-08-12T03:16:54.974Z,100257.56
2023-08-12T03:17:28.369Z,100256.72
2023-08-12T03:18:04.513Z,100255.06
2023-08-12T03:18:39.924Z,100256.91
2023-08-12T03:19:14.919Z,100259.44
2023-08-12T03:19:51.227Z,100254.22
2023-08-12T03:20:25.054Z,100254.66
2023-08-12T03:20:59.124Z,100255.06
2023-08-12T03:22:05.570Z,100265.69
2023-08-12T03:22:41.014Z,100255.59
2023-08-12T03:23:16.464Z,100256.63
2023-08-12T03:23:52.505Z,100252.22
2023-08-12T03:24:27.951Z,100260.34
2023-08-12T03:25:02.950Z,100259.97
2023-08-12T03:25:35.944Z,100257.94
2023-08-12T03:26:10.892Z,100256.44
2023-08-12T03:26:43.944Z,100250.56
2023-08-12T03:27:19.005Z,100259.53
2023-08-12T03:27:51.992Z,100257.34
2023-08-12T03:28:27.671Z,100258.56
2023-08-12T03:29:03.090Z,100255.47
2023-08-12T03:29:37.045Z,100261.75
2023-08-12T03:30:11.763Z,100257.34
2023-08-12T03:30:52.978Z,100262.78
2023-08-12T03:32:00.956Z,100257.34
2023-08-12T03:32:36.259Z,100261.94
2023-08-12T03:33:10.083Z,100266.50
2023-08-12T03:33:45.377Z,100259.03
2023-08-12T03:34:21.259Z,100258.38
2023-08-12T03:34:56.768Z,100269.88
2023-08-12T03:35:30.440Z,100267.16
2023-08-12T03:36:04.380Z,100268.00
2023-08-12T03:36:38.090Z,100263.25
2023-08-12T03:37:12.418Z,100260.34
2023-08-12T03:37:47.956Z,100262.03
2023-08-12T03:38:22.916Z,100269.72
2023-08-12T03:38:57.949Z,100263.91
2023-08-12T03:39:32.932Z,100272.03
2023-08-12T03:40:08.882Z,100272.88
2023-08-12T03:40:44.456Z,100267.47
2023-08-12T03:41:18.133Z,100266.63
2023-08-12T03:41:52.285Z,100268.13
2023-08-12T03:42:27.925Z,100273.38
2023-08-12T03:43:02.930Z,100267.94
2023-08-12T03:43:38.932Z,100274.22
2023-08-12T03:44:46.962Z,100265.78
2023-08-12T03:45:20.855Z,100265.97
2023-08-12T03:45:54.016Z,100271.94
2023-08-12T03:46:29.167Z,100273.59
2023-08-12T03:47:03.023Z,100261.28
2023-08-12T03:47:37.962Z,100271.28
2023-08-12T03:48:13.425Z,100266.88
2023-08-12T03:48:47.222Z,100265.84
2023-08-12T03:49:22.530Z,100262.13
2023-08-12T03:49:56.144Z,100266.88
2023-08-12T03:50:30.332Z,100260.13
2023-08-12T03:51:05.996Z,100266.56
2023-08-12T03:51:41.369Z,100256.94
2023-08-12T03:52:14.933Z,100266.75
2023-08-12T03:52:49.918Z,100265.25
2023-08-12T03:53:23.210Z,100258.97
2023-08-12T03:53:57.332Z,100263.88
2023-08-12T03:54:31.031Z,100266.56
2023-08-12T03:55:38.902Z,100264.91
2023-08-12T03:56:16.441Z,100265.91
2023-08-12T03:56:49.905Z,100267.03
2023-08-12T03:57:25.046Z,100268.56
2023-08-12T03:58:01.736Z,100262.47
2023-08-12T03:58:35.564Z,100274.13
2023-08-12T03:59:11.301Z,100264.06
2023-08-12T03:59:51.604Z,100267.88
2023-08-12T04:00:27.349Z,100264.72
2023-08-12T04:01:01.299Z,100268.25
2023-08-12T04:01:34.693Z,100266.09
2023-08-12T04:02:43.175Z,100259.81
2023-08-12T04:03:17.026Z,100259.63
2023-08-12T04:04:25.378Z,100271.31
2023-08-12T04:04:59.677Z,100268.78
2023-08-12T04:05:35.065Z,100274.41
2023-08-12T04:06:09.248Z,100271.50
2023-08-12T04:06:45.076Z,100277.09
2023-08-12T04:07:20.981Z,100279.81
2023-08-12T04:07:56.330Z,100269.81
2023-08-12T04:09:05.423Z,100271.50
2023-08-12T04:09:41.288Z,100271.50
2023-08-12T04:10:16.598Z,100273.19
2023-08-12T04:10:51.981Z,100262.91
2023-08-12T04:11:25.363Z,100272.34
2023-08-12T04:11:59.028Z,100272.19
2023-08-12T04:12:32.177Z,100266.75
2023-08-12T04:13:07.662Z,100272.84
2023-08-12T04:14:15.356Z,100271.16
2023-08-12T04:14:51.054Z,100278.56
2023-08-12T04:15:25.002Z,100278.72
2023-08-12T04:16:00.035Z,100271.44
2023-08-12T04:16:35.239Z,100278.72
2023-08-12T04:17:09.306Z,100275.53
2023-08-12T04:17:45.451Z,100280.44
2023-08-12T04:18:19.811Z,100279.75
2023-08-12T04:18:53.644Z,100279.56
2023-08-12T04:19:29.313Z,100275.34
2023-08-12T04:20:07.615Z,100276.00
2023-08-12T04:20:40.955Z,100274.13
2023-08-12T04:21:15.958Z,100282.47
2023-08-12T04:21:51.046Z,100278.91
2023-08-12T04:22:23.937Z,100284.13
2023-08-12T04:22:58.898Z,100284.81
2023-08-12T04:23:34.368Z,100280.25
2023-08-12T04:24:41.402Z,100277.72
2023-08-12T04:25:17.120Z,100287.03
2023-08-12T04:26:24.970Z,100286.38
2023-08-12T04:26:58.124Z,100290.78
2023-08-12T04:27:32.171Z,100285.34
2023-08-12T04:28:06.909Z,100279.09
2023-08-12T04:28:42.241Z,100280.59
2023-08-12T04:29:17.624Z,100281.16
2023-08-12T04:29:52.981Z,100282.28
2023-08-12T04:31:00.928Z,100275.28
2023-08-12T04:31:36.045Z,100288.09
2023-08-12T04:32:11.098Z,100286.94
2023-08-12T04:32:45.096Z,100281.31
2023-08-12T04:33:19.034Z,100282.53
2023-08-12T04:33:54.232Z,100275.06
2023-08-12T04:34:30.027Z,100281.97
2023-08-12T04:35:06.302Z,100274.66
2023-08-12T04:35:41.639Z,100279.75
2023-08-12T04:36:17.492Z,100282.06
2023-08-12T04:36:53.069Z,100276.84
2023-08-12T04:37:29.283Z,100279.94
2023-08-12T04:38:06.606Z,100279.75
2023-08-12T04:38:41.976Z,100286.97
2023-08-12T04:39:17.107Z,100279.66
2023-08-12T04:39:51.780Z,100283.59
2023-08-12T04:40:27.252Z,100281.44
2023-08-12T04:41:00.317Z,100277.38
2023-08-12T04:41:35.140Z,100283.00
2023-08-12T04:42:09.115Z,100274.31
2023-08-12T04:42:43.943Z,100277.34
2023-08-12T04:43:19.001Z,100283.22
2023-08-12T04:43:54.306Z,100280.50
2023-08-12T04:44:28.320Z,100278.63
2023-08-12T04:45:04.937Z,100278.28
2023-08-12T04:45:40.064Z,100283.13
2023-08-12T04:46:13.131Z,100284.50
2023-08-12T04:46:48.476Z,100285.53
2023-08-12T04:47:23.964Z,100282.44
2023-08-12T04:47:59.447Z,100276.00
2023-08-12T04:48:38.182Z,100282.09
2023-08-12T04:49:13.031Z,100280.22
2023-08-12T04:49:46.984Z,100280.56
2023-08-12T04:50:22.325Z,100280.22
2023-08-12T04:51:01.286Z,100284.06
2023-08-12T04:51:36.074Z,100286.38
2023-08-12T04:52:10.960Z,100280.41
2023-08-12T04:52:47.433Z,100279.19
2023-08-12T04:53:21.086Z,100286.78
2023-08-12T04:53:56.588Z,100278.84
2023-08-12T04:54:32.318Z,100281.16
2023-08-12T04:55:08.806Z,100290.63
2023-08-12T04:55:46.337Z,100285.00
2023-08-12T04:56:21.358Z,100281.75
2023-08-12T04:56:55.089Z,100290.72
2023-08-12T04:57:31.954Z,100283.06
2023-08-12T04:58:07.160Z,100292.69
2023-08-12T04:58:41.059Z,100284.16
2023-08-12T04:59:16.100Z,100285.69
2023-08-12T05:00:23.788Z,100284.25
2023-08-12T05:01:32.675Z,100284.16
2023-08-12T05:02:06.175Z,100294.56
2023-08-12T05:02:44.192Z,100286.63
2023-08-12T05:03:20.434Z,100281.34
2023-08-12T05:03:56.272Z,100288.09
2023-08-12T05:04:30.924Z,100292.50
2023-08-12T05:05:06.448Z,100289.59
2023-08-12T05:05:42.031Z,100290.19
2023-08-12T05:06:17.128Z,100287.28
2023-08-12T05:06:51.275Z,100292.16
2023-08-12T05:07:27.356Z,100291.13
2023-08-12T05:08:01.305Z,100278.56
2023-08-12T05:08:37.313Z,100289.03
2023-08-12T05:09:13.003Z,100294.75
2023-08-12T05:09:48.268Z,100292.78
2023-08-12T05:10:22.335Z,100288.75
2023-08-12T05:11:30.740Z,100289.13
2023-08-12T05:12:06.340Z,100293.03
2023-08-12T05:12:39.999Z,100291.56
2023-08-12T05:13:13.878Z,100285.44
2023-08-12T05:13:48.902Z,100293.03
2023-08-12T05:14:24.425Z,100293.78
2023-08-12T05:15:00.095Z,100291.66
2023-08-12T05:16:06.834Z,100291.25
2023-08-12T05:16:42.390Z,100293.94
2023-08-12T05:17:19.017Z,100291.06
2023-08-12T05:17:54.223Z,100295.75
2023-08-12T05:18:30.302Z,100294.75
2023-08-12T05:19:04.232Z,100284.13
2023-08-12T05:19:38.717Z,100293.41
2023-08-12T05:20:14.343Z,100287.59
2023-08-12T05:20:50.290Z,100285.56
2023-08-12T05:21:24.779Z,100287.69
2023-08-12T05:22:00.321Z,100284.59
2023-08-12T05:22:34.280Z,100288.59
2023-08-12T05:23:11.102Z,100280.63
2023-08-12T05:23:45.117Z,100285.50
2023-08-12T05:24:18.288Z,100292.25
2023-08-12T05:24:54.207Z,100285.72
2023-08-12T05:25:28.904Z,100282.22
2023-08-12T05:26:04.314Z,100286.63
2023-08-12T05:30:06.589Z,100284.47
2023-08-12T05:33:15.145Z,100286.69
2023-08-12T05:34:21.255Z,100290.06
2023-08-12T05:34:56.374Z,100288.16
2023-08-12T05:35:30.347Z,100287.69
2023-08-12T05:36:04.537Z,100285.38
2023-08-12T05:36:38.312Z,100289.34
2023-08-12T05:37:12.433Z,100284.94
2023-08-12T05:37:46.211Z,100297.72
2023-08-12T05:38:21.519Z,100303.41
2023-08-12T05:38:55.154Z,100294.38
2023-08-12T05:39:30.396Z,100294.56
2023-08-12T05:40:09.260Z,100291.59
2023-08-12T05:40:44.822Z,100291.59
2023-08-12T05:41:20.159Z,100296.22
2023-08-12T05:41:54.128Z,100293.03
2023-08-12T05:42:29.064Z,100295.75
2023-08-12T05:43:04.468Z,100295.72
2023-08-12T05:43:38.117Z,100297.19
2023-08-12T05:44:13.204Z,100295.72
2023-08-12T05:44:47.220Z,100298.03
2023-08-12T05:45:21.457Z,100291.22
2023-08-12T05:45:56.150Z,100288.66
2023-08-12T05:46:31.388Z,100289.63
2023-08-12T05:47:07.096Z,100294.88
2023-08-12T05:47:42.297Z,100291.31
2023-08-12T05:48:16.084Z,100299.88
2023-08-12T05:48:51.152Z,100293.09
2023-08-12T05:49:29.090Z,100297.53
2023-08-12T05:50:05.674Z,100294.34
2023-08-12T05:50:43.239Z,100286.09
2023-08-12T05:51:53.386Z,100298.00
2023-08-12T05:52:28.147Z,100296.94
2023-08-12T05:53:03.352Z,100294.38
2023-08-12T05:53:37.150Z,100296.06
2023-08-12T05:54:12.368Z,100298.03
2023-08-12T05:54:47.080Z,100297.00
2023-08-12T05:55:22.124Z,100302.41
2023-08-12T05:55:57.232Z,100298.78
2023-08-12T05:56:32.119Z,100302.38
2023-08-12T05:57:08.337Z,100297.09
2023-08-12T05:57:41.148Z,100290.19
2023-08-12T05:58:16.171Z,100296.66
2023-08-12T05:58:51.717Z,100296.41
2023-08-12T05:59:27.146Z,100303.28
2023-08-12T06:00:02.205Z,100300.31
2023-08-12T06:00:37.451Z,100297.88
2023-08-12T06:01:48.828Z,100301.38
2023-08-12T06:02:24.208Z,100301.25
2023-08-12T06:02:57.960Z,100302.44
2023-08-12T06:03:31.635Z,100298.88
2023-08-12T06:04:10.146Z,100307.66
2023-08-12T06:04:45.387Z,100306.81
2023-08-12T06:05:19.281Z,100298.94
2023-08-12T06:05:55.449Z,100300.78
2023-08-12T06:07:06.963Z,100299.19
2023-08-12T06:07:42.432Z,100298.38
2023-08-12T06:08:49.591Z,100304.59
2023-08-12T06:09:25.662Z,100301.22
2023-08-12T06:09:59.227Z,100299.63
2023-08-12T06:10:32.222Z,100298.22
2023-08-12T06:11:07.276Z,100292.41
2023-08-12T06:11:43.567Z,100294.22
2023-08-12T06:12:22.423Z,100294.19
2023-08-12T06:12:56.201Z,100292.88
2023-08-12T06:13:31.404Z,100295.66
2023-08-12T06:14:05.433Z,100293.34
2023-08-12T06:14:41.194Z,100290.69
2023-08-12T06:15:49.452Z,100291.56
2023-08-12T06:16:23.886Z,100293.59
2023-08-12T06:17:32.347Z,100296.03
2023-08-12T06:18:08.796Z,100292.44
2023-08-12T06:18:44.382Z,100293.03
2023-08-12T06:19:27.564Z,100302.13
2023-08-12T06:20:03.888Z,100299.16
2023-08-12T06:20:39.250Z,100294.47
2023-08-12T06:21:11.485Z,100288.47
2023-08-12T06:21:45.463Z,100291.38
2023-08-12T06:22:19.306Z,100290.31
2023-08-12T06:22:56.946Z,100295.09
2023-08-12T06:23:32.616Z,100289.41
2023-08-12T06:24:37.015Z,100293.75
2023-08-12T06:25:46.731Z,100290.78
2023-08-12T06:26:22.325Z,100297.28
2023-08-12T06:26:59.861Z,100294.28
2023-08-12T06:27:34.072Z,100289.16
2023-08-12T06:28:10.488Z,100294.81
2023-08-12T06:28:43.361Z,100290.00
2023-08-12T06:29:19.559Z,100292.91
2023-08-12T06:29:58.145Z,100291.22
2023-08-12T06:30:33.313Z,100293.16
2023-08-12T06:31:07.245Z,100295.91
2023-08-12T06:31:42.453Z,100298.19
2023-08-12T06:32:16.329Z,100293.31
2023-08-12T06:33:25.211Z,100292.03
2023-08-12T06:34:00.735Z,100289.25
2023-08-12T06:34:35.852Z,100286.56
2023-08-12T06:35:11.966Z,100290.75
2023-08-12T06:35:50.713Z,100290.84
2023-08-12T06:36:59.808Z,100286.47
2023-08-12T06:37:38.172Z,100279.94
2023-08-12T06:38:46.425Z,100280.38
2023-08-12T06:39:21.297Z,100287.50
2023-08-12T06:39:57.377Z,100280.25
2023-08-12T06:40:32.221Z,100286.31
2023-08-12T06:41:12.459Z,100281.06
2023-08-12T06:41:52.236Z,100282.78
2023-08-12T06:42:27.143Z,100281.81
2023-08-12T06:43:05.362Z,100283.66
2023-08-12T06:43:39.245Z,100285.78
2023-08-12T06:44:11.303Z,100278.44
2023-08-12T06:45:18.157Z,100282.16
2023-08-12T06:45:51.448Z,100278.63
2023-08-12T06:46:25.521Z,100282.28
2023-08-12T06:46:59.359Z,100281.16
2023-08-12T06:47:32.612Z,100283.66
2023-08-12T06:48:06.824Z,100284.41
2023-08-12T06:48:42.223Z,100286.44
2023-08-12T06:49:46.085Z,100287.22
2023-08-12T06:50:53.788Z,100282.19
2023-08-12T06:51:29.184Z,100288.16
2023-08-12T06:52:01.367Z,100281.59
2023-08-12T06:53:10.639Z,100277.69
2023-08-12T06:53:46.327Z,100285.38
2023-08-12T06:54:20.406Z,100280.13
2023-08-12T06:54:54.265Z,100282.69
2023-08-12T06:55:29.519Z,100288.22
2023-08-12T06:56:05.907Z,100289.38
2023-08-12T06:56:37.933Z,100279.03
2023-08-12T06:57:17.503Z,100284.53
2023-08-12T06:57:53.972Z,100287.78
2023-08-12T06:58:29.493Z,100290.69
2023-08-12T06:59:01.623Z,100282.84
2023-08-12T06:59:33.715Z,100278.53
2023-08-12T07:00:09.882Z,100283.09
2023-08-12T07:00:42.814Z,100279.97
2023-08-12T07:01:15.892Z,100291.16
2023-08-12T07:02:24.183Z,100287.81
2023-08-12T07:03:02.246Z,100286.66
2023-08-12T07:03:46.519Z,100282.16
2023-08-12T07:04:22.258Z,100283.38
2023-08-12T07:04:57.500Z,100282.88
2023-08-12T07:05:33.655Z,100279.81
2023-08-12T07:06:05.665Z,100280.84
2023-08-12T07:07:14.300Z,100280.53
2023-08-12T07:08:23.071Z,100270.72
2023-08-12T07:08:55.241Z,100279.09
2023-08-12T07:09:27.612Z,100281.59
2023-08-12T07:10:00.873Z,100282.94
2023-08-12T07:10:33.228Z,100278.84
2023-08-12T07:11:08.861Z,100274.63
2023-08-12T07:11:43.435Z,100285.19
2023-08-12T07:12:15.435Z,100281.84
2023-08-12T07:13:20.821Z,100279.94
2023-08-12T07:13:52.930Z,100287.88
2023-08-12T07:14:25.021Z,100285.81
2023-08-12T07:14:57.229Z,100284.19
2023-08-12T07:16:03.427Z,100284.75
2023-08-12T07:16:35.534Z,100281.75
2023-08-12T07:17:10.480Z,100283.72
2023-08-12T07:17:44.372Z,100286.47
2023-08-12T07:18:16.876Z,100282.75
2023-08-12T07:18:52.742Z,100284.66
2023-08-12T07:19:25.161Z,100274.06
2023-08-12T07:19:57.705Z,100283.59
2023-08-12T07:20:44.497Z,100286.09
2023-08-12T07:21:16.607Z,100276.59
2023-08-12T07:21:48.903Z,100285.25
2023-08-12T07:22:21.722Z,100278.53